sensor_id;sensor_type;location;lat;lon;timestamp;P1;durP1;ratioP1;P2;durP2;ratioP2
10144;SDS011;5113;41.822;23.564;2023-11-19T00:01:31;10.63;;;6.27;;
10144;SDS011;5113;41.822;23.564;2023-11-19T00:04:38;10.00;;;6.43;;
10144;SDS011;5113;41.822;23.564;2023-11-19T00:07:44;5.77;;;3.87;;
10144;SDS011;5113;41.822;23.564;2023-11-19T00:10:52;10.87;;;6.93;;
10144;SDS011;5113;41.822;23.564;2023-11-19T00:14:00;12.57;;;9.07;;
10144;SDS011;5113;41.822;23.564;2023-11-19T00:17:07;11.73;;;7.47;;
10144;SDS011;5113;41.822;23.564;2023-11-19T00:20:13;7.63;;;6.07;;
10144;SDS011;5113;41.822;23.564;2023-11-19T00:23:21;3.33;;;3.13;;
10144;SDS011;5113;41.822;23.564;2023-11-19T00:26:28;6.97;;;5.50;;
10144;SDS011;5113;41.822;23.564;2023-11-19T00:29:36;8.80;;;4.13;;
10144;SDS011;5113;41.822;23.564;2023-11-19T00:32:44;4.17;;;3.73;;
10144;SDS011;5113;41.822;23.564;2023-11-19T00:35:51;5.93;;;4.27;;
10144;SDS011;5113;41.822;23.564;2023-11-19T00:38:58;2.80;;;2.60;;
10144;SDS011;5113;41.822;23.564;2023-11-19T00:42:05;3.80;;;2.87;;
10144;SDS011;5113;41.822;23.564;2023-11-19T00:45:12;3.33;;;3.03;;
10144;SDS011;5113;41.822;23.564;2023-11-19T00:48:20;5.93;;;4.57;;
10144;SDS011;5113;41.822;23.564;2023-11-19T00:51:26;3.80;;;2.80;;
10144;SDS011;5113;41.822;23.564;2023-11-19T00:54:36;2.67;;;2.43;;
10144;SDS011;5113;41.822;23.564;2023-11-19T00:57:43;3.03;;;2.30;;
10144;SDS011;5113;41.822;23.564;2023-11-19T01:00:51;5.53;;;4.03;;
10144;SDS011;5113;41.822;23.564;2023-11-19T01:03:57;5.67;;;4.43;;
10144;SDS011;5113;41.822;23.564;2023-11-19T01:07:05;7.10;;;4.33;;
10144;SDS011;5113;41.822;23.564;2023-11-19T01:10:17;3.10;;;2.83;;
10144;SDS011;5113;41.822;23.564;2023-11-19T01:13:26;5.67;;;4.40;;
10144;SDS011;5113;41.822;23.564;2023-11-19T01:16:35;3.50;;;3.17;;
10144;SDS011;5113;41.822;23.564;2023-11-19T01:19:42;7.47;;;2.77;;
10144;SDS011;5113;41.822;23.564;2023-11-19T01:22:48;6.53;;;4.63;;
10144;SDS011;5113;41.822;23.564;2023-11-19T01:25:54;2.90;;;2.80;;
10144;SDS011;5113;41.822;23.564;2023-11-19T01:29:01;2.57;;;2.37;;
10144;SDS011;5113;41.822;23.564;2023-11-19T01:32:09;2.40;;;2.30;;
10144;SDS011;5113;41.822;23.564;2023-11-19T01:35:17;3.33;;;3.03;;
10144;SDS011;5113;41.822;23.564;2023-11-19T01:38:24;3.53;;;3.07;;
10144;SDS011;5113;41.822;23.564;2023-11-19T01:41:33;2.73;;;2.53;;
10144;SDS011;5113;41.822;23.564;2023-11-19T01:44:41;3.60;;;2.80;;
10144;SDS011;5113;41.822;23.564;2023-11-19T01:47:48;2.53;;;2.43;;
10144;SDS011;5113;41.822;23.564;2023-11-19T01:50:56;3.00;;;2.70;;
10144;SDS011;5113;41.822;23.564;2023-11-19T01:54:06;3.60;;;2.60;;
10144;SDS011;5113;41.822;23.564;2023-11-19T01:57:13;3.10;;;2.57;;
10144;SDS011;5113;41.822;23.564;2023-11-19T02:00:20;4.70;;;2.67;;
10144;SDS011;5113;41.822;23.564;2023-11-19T02:03:27;2.73;;;2.53;;
10144;SDS011;5113;41.822;23.564;2023-11-19T02:06:34;2.17;;;2.07;;
10144;SDS011;5113;41.822;23.564;2023-11-19T02:09:46;2.73;;;2.33;;
10144;SDS011;5113;41.822;23.564;2023-11-19T02:12:52;2.93;;;2.40;;
10144;SDS011;5113;41.822;23.564;2023-11-19T02:16:09;2.20;;;2.00;;
10144;SDS011;5113;41.822;23.564;2023-11-19T02:19:20;2.93;;;2.73;;
10144;SDS011;5113;41.822;23.564;2023-11-19T02:22:27;2.30;;;2.20;;
10144;SDS011;5113;41.822;23.564;2023-11-19T02:25:33;4.30;;;2.50;;
10144;SDS011;5113;41.822;23.564;2023-11-19T02:28:42;2.73;;;2.60;;
10144;SDS011;5113;41.822;23.564;2023-11-19T02:32:07;1.80;;;1.70;;
10144;SDS011;5113;41.822;23.564;2023-11-19T02:35:14;3.17;;;2.57;;
10144;SDS011;5113;41.822;23.564;2023-11-19T02:38:21;2.23;;;2.03;;
10144;SDS011;5113;41.822;23.564;2023-11-19T02:41:27;3.33;;;2.20;;
10144;SDS011;5113;41.822;23.564;2023-11-19T02:44:35;2.20;;;2.10;;
10144;SDS011;5113;41.822;23.564;2023-11-19T02:47:41;1.93;;;1.83;;
10144;SDS011;5113;41.822;23.564;2023-11-19T02:50:49;2.20;;;2.10;;
10144;SDS011;5113;41.822;23.564;2023-11-19T02:53:56;3.63;;;2.73;;
10144;SDS011;5113;41.822;23.564;2023-11-19T02:57:03;3.80;;;3.13;;
10144;SDS011;5113;41.822;23.564;2023-11-19T03:00:12;2.03;;;1.93;;
10144;SDS011;5113;41.822;23.564;2023-11-19T03:03:19;4.07;;;3.17;;
10144;SDS011;5113;41.822;23.564;2023-11-19T03:06:27;1.60;;;1.60;;
10144;SDS011;5113;41.822;23.564;2023-11-19T03:09:34;2.83;;;2.40;;
10144;SDS011;5113;41.822;23.564;2023-11-19T03:12:40;3.70;;;2.87;;
10144;SDS011;5113;41.822;23.564;2023-11-19T03:15:48;2.53;;;2.33;;
10144;SDS011;5113;41.822;23.564;2023-11-19T03:18:56;1.97;;;1.87;;
10144;SDS011;5113;41.822;23.564;2023-11-19T03:22:02;2.43;;;2.27;;
10144;SDS011;5113;41.822;23.564;2023-11-19T03:25:09;2.70;;;2.50;;
10144;SDS011;5113;41.822;23.564;2023-11-19T03:28:16;2.50;;;2.30;;
10144;SDS011;5113;41.822;23.564;2023-11-19T03:31:24;2.00;;;1.90;;
10144;SDS011;5113;41.822;23.564;2023-11-19T03:34:30;2.10;;;2.00;;
10144;SDS011;5113;41.822;23.564;2023-11-19T03:37:37;3.00;;;1.97;;
10144;SDS011;5113;41.822;23.564;2023-11-19T03:40:44;3.07;;;2.80;;
10144;SDS011;5113;41.822;23.564;2023-11-19T03:43:51;2.17;;;2.00;;
10144;SDS011;5113;41.822;23.564;2023-11-19T03:46:59;2.23;;;2.13;;
10144;SDS011;5113;41.822;23.564;2023-11-19T03:50:06;3.20;;;2.90;;
10144;SDS011;5113;41.822;23.564;2023-11-19T03:53:13;5.33;;;3.40;;
10144;SDS011;5113;41.822;23.564;2023-11-19T03:56:20;2.53;;;2.33;;
10144;SDS011;5113;41.822;23.564;2023-11-19T03:59:26;4.30;;;2.40;;
10144;SDS011;5113;41.822;23.564;2023-11-19T04:02:34;3.20;;;2.90;;
10144;SDS011;5113;41.822;23.564;2023-11-19T04:05:41;6.30;;;2.60;;
10144;SDS011;5113;41.822;23.564;2023-11-19T04:08:49;2.70;;;2.40;;
10144;SDS011;5113;41.822;23.564;2023-11-19T04:11:57;4.30;;;3.80;;
10144;SDS011;5113;41.822;23.564;2023-11-19T04:15:04;5.43;;;3.97;;
10144;SDS011;5113;41.822;23.564;2023-11-19T04:18:13;5.30;;;4.57;;
10144;SDS011;5113;41.822;23.564;2023-11-19T04:21:19;7.63;;;5.00;;
10144;SDS011;5113;41.822;23.564;2023-11-19T04:24:27;5.80;;;4.17;;
10144;SDS011;5113;41.822;23.564;2023-11-19T04:27:34;5.00;;;4.43;;
10144;SDS011;5113;41.822;23.564;2023-11-19T04:30:40;9.17;;;5.53;;
10144;SDS011;5113;41.822;23.564;2023-11-19T04:33:48;10.77;;;6.60;;
10144;SDS011;5113;41.822;23.564;2023-11-19T04:36:57;20.80;;;9.07;;
10144;SDS011;5113;41.822;23.564;2023-11-19T04:40:15;7.30;;;6.00;;
10144;SDS011;5113;41.822;23.564;2023-11-19T04:43:24;3.13;;;2.90;;
10144;SDS011;5113;41.822;23.564;2023-11-19T04:46:30;7.00;;;4.63;;
10144;SDS011;5113;41.822;23.564;2023-11-19T04:49:41;4.60;;;4.17;;
10144;SDS011;5113;41.822;23.564;2023-11-19T04:52:48;4.93;;;4.40;;
10144;SDS011;5113;41.822;23.564;2023-11-19T04:55:55;2.67;;;2.47;;
10144;SDS011;5113;41.822;23.564;2023-11-19T04:59:01;3.20;;;2.90;;
10144;SDS011;5113;41.822;23.564;2023-11-19T05:02:08;4.03;;;3.30;;
10144;SDS011;5113;41.822;23.564;2023-11-19T05:05:16;3.10;;;2.80;;
10144;SDS011;5113;41.822;23.564;2023-11-19T05:08:23;3.27;;;3.07;;
10144;SDS011;5113;41.822;23.564;2023-11-19T05:11:29;2.40;;;2.30;;
10144;SDS011;5113;41.822;23.564;2023-11-19T05:14:36;5.20;;;3.47;;
10144;SDS011;5113;41.822;23.564;2023-11-19T05:17:42;4.43;;;3.97;;
10144;SDS011;5113;41.822;23.564;2023-11-19T05:20:51;3.43;;;3.17;;
10144;SDS011;5113;41.822;23.564;2023-11-19T05:23:58;3.33;;;3.03;;
10144;SDS011;5113;41.822;23.564;2023-11-19T05:27:04;3.90;;;3.50;;
10144;SDS011;5113;41.822;23.564;2023-11-19T05:30:11;6.47;;;3.67;;
10144;SDS011;5113;41.822;23.564;2023-11-19T05:33:17;4.77;;;3.73;;
10144;SDS011;5113;41.822;23.564;2023-11-19T05:36:25;5.80;;;4.40;;
10144;SDS011;5113;41.822;23.564;2023-11-19T05:39:32;5.30;;;4.80;;
10144;SDS011;5113;41.822;23.564;2023-11-19T05:42:38;5.50;;;4.20;;
10144;SDS011;5113;41.822;23.564;2023-11-19T05:45:45;10.83;;;6.50;;
10144;SDS011;5113;41.822;23.564;2023-11-19T05:48:52;11.40;;;5.40;;
10144;SDS011;5113;41.822;23.564;2023-11-19T05:52:00;11.33;;;7.07;;
10144;SDS011;5113;41.822;23.564;2023-11-19T05:55:08;8.03;;;5.20;;
10144;SDS011;5113;41.822;23.564;2023-11-19T05:58:15;11.97;;;5.67;;
10144;SDS011;5113;41.822;23.564;2023-11-19T06:01:21;6.83;;;6.03;;
10144;SDS011;5113;41.822;23.564;2023-11-19T06:04:28;5.60;;;4.60;;
10144;SDS011;5113;41.822;23.564;2023-11-19T06:07:36;5.13;;;3.60;;
10144;SDS011;5113;41.822;23.564;2023-11-19T06:10:44;4.60;;;3.70;;
10144;SDS011;5113;41.822;23.564;2023-11-19T06:13:51;34.60;;;15.73;;
10144;SDS011;5113;41.822;23.564;2023-11-19T06:16:58;111.33;;;46.23;;
10144;SDS011;5113;41.822;23.564;2023-11-19T06:20:05;11.10;;;7.57;;
10144;SDS011;5113;41.822;23.564;2023-11-19T06:23:15;20.43;;;12.23;;
10144;SDS011;5113;41.822;23.564;2023-11-19T06:26:24;89.87;;;40.17;;
10144;SDS011;5113;41.822;23.564;2023-11-19T06:29:30;41.03;;;19.93;;
10144;SDS011;5113;41.822;23.564;2023-11-19T06:32:37;7.73;;;5.03;;
10144;SDS011;5113;41.822;23.564;2023-11-19T06:35:44;13.77;;;8.60;;
10144;SDS011;5113;41.822;23.564;2023-11-19T06:38:52;10.77;;;6.23;;
10144;SDS011;5113;41.822;23.564;2023-11-19T06:41:58;10.63;;;6.37;;
10144;SDS011;5113;41.822;23.564;2023-11-19T06:45:05;6.57;;;3.57;;
10144;SDS011;5113;41.822;23.564;2023-11-19T06:48:12;7.13;;;4.57;;
10144;SDS011;5113;41.822;23.564;2023-11-19T06:51:18;4.83;;;4.10;;
10144;SDS011;5113;41.822;23.564;2023-11-19T06:54:26;4.07;;;3.73;;
10144;SDS011;5113;41.822;23.564;2023-11-19T06:57:33;4.77;;;3.40;;
10144;SDS011;5113;41.822;23.564;2023-11-19T07:00:40;2.97;;;2.77;;
10144;SDS011;5113;41.822;23.564;2023-11-19T07:03:46;6.63;;;4.00;;
10144;SDS011;5113;41.822;23.564;2023-11-19T07:06:56;6.90;;;4.20;;
10144;SDS011;5113;41.822;23.564;2023-11-19T07:10:04;5.57;;;5.07;;
10144;SDS011;5113;41.822;23.564;2023-11-19T07:13:14;5.30;;;3.90;;
10144;SDS011;5113;41.822;23.564;2023-11-19T07:16:21;4.23;;;3.70;;
10144;SDS011;5113;41.822;23.564;2023-11-19T07:19:27;6.00;;;3.90;;
10144;SDS011;5113;41.822;23.564;2023-11-19T07:22:34;4.63;;;3.30;;
10144;SDS011;5113;41.822;23.564;2023-11-19T07:25:44;3.77;;;3.40;;
10144;SDS011;5113;41.822;23.564;2023-11-19T07:28:52;11.77;;;6.70;;
10144;SDS011;5113;41.822;23.564;2023-11-19T07:32:00;8.03;;;4.20;;
10144;SDS011;5113;41.822;23.564;2023-11-19T07:35:07;9.83;;;6.70;;
10144;SDS011;5113;41.822;23.564;2023-11-19T07:38:14;13.10;;;8.13;;
10144;SDS011;5113;41.822;23.564;2023-11-19T07:41:22;6.83;;;5.23;;
10144;SDS011;5113;41.822;23.564;2023-11-19T07:44:29;8.07;;;5.17;;
10144;SDS011;5113;41.822;23.564;2023-11-19T07:47:36;13.47;;;9.00;;
10144;SDS011;5113;41.822;23.564;2023-11-19T07:50:43;6.50;;;5.43;;
10144;SDS011;5113;41.822;23.564;2023-11-19T07:53:49;5.53;;;3.60;;
10144;SDS011;5113;41.822;23.564;2023-11-19T07:56:57;6.07;;;4.90;;
10144;SDS011;5113;41.822;23.564;2023-11-19T08:00:04;3.77;;;3.50;;
10144;SDS011;5113;41.822;23.564;2023-11-19T08:03:12;4.27;;;3.87;;
10144;SDS011;5113;41.822;23.564;2023-11-19T08:06:19;14.00;;;7.93;;
10144;SDS011;5113;41.822;23.564;2023-11-19T08:09:25;4.90;;;4.40;;
10144;SDS011;5113;41.822;23.564;2023-11-19T08:12:34;5.33;;;4.80;;
10144;SDS011;5113;41.822;23.564;2023-11-19T08:15:41;4.93;;;4.43;;
10144;SDS011;5113;41.822;23.564;2023-11-19T08:18:48;5.47;;;4.77;;
10144;SDS011;5113;41.822;23.564;2023-11-19T08:21:54;8.90;;;4.47;;
10144;SDS011;5113;41.822;23.564;2023-11-19T08:25:02;5.73;;;4.73;;
10144;SDS011;5113;41.822;23.564;2023-11-19T08:28:10;6.57;;;4.37;;
10144;SDS011;5113;41.822;23.564;2023-11-19T08:31:16;4.43;;;3.73;;
10144;SDS011;5113;41.822;23.564;2023-11-19T08:34:22;7.30;;;4.77;;
10144;SDS011;5113;41.822;23.564;2023-11-19T08:37:29;11.10;;;6.13;;
10144;SDS011;5113;41.822;23.564;2023-11-19T08:40:35;10.97;;;6.03;;
10144;SDS011;5113;41.822;23.564;2023-11-19T08:43:47;14.97;;;7.63;;
10144;SDS011;5113;41.822;23.564;2023-11-19T08:46:53;16.60;;;8.33;;
10144;SDS011;5113;41.822;23.564;2023-11-19T08:50:00;26.00;;;13.97;;
10144;SDS011;5113;41.822;23.564;2023-11-19T08:53:08;16.77;;;8.30;;
10144;SDS011;5113;41.822;23.564;2023-11-19T08:56:16;17.40;;;6.60;;
10144;SDS011;5113;41.822;23.564;2023-11-19T08:59:24;7.67;;;4.40;;
10144;SDS011;5113;41.822;23.564;2023-11-19T09:02:30;18.90;;;7.87;;
10144;SDS011;5113;41.822;23.564;2023-11-19T09:05:37;13.57;;;7.10;;
10144;SDS011;5113;41.822;23.564;2023-11-19T09:08:44;14.80;;;8.40;;
10144;SDS011;5113;41.822;23.564;2023-11-19T09:11:50;10.83;;;6.20;;
10144;SDS011;5113;41.822;23.564;2023-11-19T09:14:59;6.70;;;4.93;;
10144;SDS011;5113;41.822;23.564;2023-11-19T09:18:05;18.73;;;8.73;;
10144;SDS011;5113;41.822;23.564;2023-11-19T09:21:12;19.87;;;9.80;;
10144;SDS011;5113;41.822;23.564;2023-11-19T09:24:18;12.47;;;7.03;;
10144;SDS011;5113;41.822;23.564;2023-11-19T09:27:25;23.23;;;9.30;;
10144;SDS011;5113;41.822;23.564;2023-11-19T09:30:33;17.57;;;7.57;;
10144;SDS011;5113;41.822;23.564;2023-11-19T09:33:39;15.50;;;9.00;;
10144;SDS011;5113;41.822;23.564;2023-11-19T09:36:46;9.03;;;5.83;;
10144;SDS011;5113;41.822;23.564;2023-11-19T09:39:53;11.07;;;6.63;;
10144;SDS011;5113;41.822;23.564;2023-11-19T09:42:59;8.70;;;6.07;;
10144;SDS011;5113;41.822;23.564;2023-11-19T09:46:08;10.57;;;6.07;;
10144;SDS011;5113;41.822;23.564;2023-11-19T09:49:16;11.87;;;6.30;;
10144;SDS011;5113;41.822;23.564;2023-11-19T09:52:31;3.70;;;3.40;;
10144;SDS011;5113;41.822;23.564;2023-11-19T09:55:38;8.53;;;5.27;;
10144;SDS011;5113;41.822;23.564;2023-11-19T09:58:44;10.73;;;7.67;;
10144;SDS011;5113;41.822;23.564;2023-11-19T10:01:53;8.63;;;5.97;;
10144;SDS011;5113;41.822;23.564;2023-11-19T10:04:59;11.97;;;7.10;;
10144;SDS011;5113;41.822;23.564;2023-11-19T10:08:10;19.77;;;11.30;;
10144;SDS011;5113;41.822;23.564;2023-11-19T10:11:18;23.47;;;9.77;;
10144;SDS011;5113;41.822;23.564;2023-11-19T10:14:25;27.53;;;14.43;;
10144;SDS011;5113;41.822;23.564;2023-11-19T10:17:34;27.23;;;12.60;;
10144;SDS011;5113;41.822;23.564;2023-11-19T10:20:41;13.87;;;7.63;;
10144;SDS011;5113;41.822;23.564;2023-11-19T10:23:49;9.57;;;6.73;;
10144;SDS011;5113;41.822;23.564;2023-11-19T10:26:57;13.67;;;9.80;;
10144;SDS011;5113;41.822;23.564;2023-11-19T10:30:04;9.00;;;5.77;;
10144;SDS011;5113;41.822;23.564;2023-11-19T10:33:16;14.30;;;8.47;;
10144;SDS011;5113;41.822;23.564;2023-11-19T10:36:36;8.03;;;6.10;;
10144;SDS011;5113;41.822;23.564;2023-11-19T10:39:52;19.87;;;10.63;;
10144;SDS011;5113;41.822;23.564;2023-11-19T10:43:01;16.07;;;10.17;;
10144;SDS011;5113;41.822;23.564;2023-11-19T10:46:09;17.77;;;8.57;;
10144;SDS011;5113;41.822;23.564;2023-11-19T10:49:18;13.47;;;5.17;;
10144;SDS011;5113;41.822;23.564;2023-11-19T10:52:25;24.27;;;11.50;;
10144;SDS011;5113;41.822;23.564;2023-11-19T10:55:33;13.03;;;7.80;;
10144;SDS011;5113;41.822;23.564;2023-11-19T10:58:44;19.50;;;10.43;;
10144;SDS011;5113;41.822;23.564;2023-11-19T11:01:53;17.27;;;10.90;;
10144;SDS011;5113;41.822;23.564;2023-11-19T11:05:02;8.57;;;5.97;;
10144;SDS011;5113;41.822;23.564;2023-11-19T11:08:10;19.93;;;10.67;;
10144;SDS011;5113;41.822;23.564;2023-11-19T11:11:17;24.23;;;11.10;;
10144;SDS011;5113;41.822;23.564;2023-11-19T11:14:25;11.43;;;6.70;;
10144;SDS011;5113;41.822;23.564;2023-11-19T11:17:33;23.20;;;12.87;;
10144;SDS011;5113;41.822;23.564;2023-11-19T11:20:43;14.13;;;6.73;;
10144;SDS011;5113;41.822;23.564;2023-11-19T11:24:05;16.97;;;8.57;;
10144;SDS011;5113;41.822;23.564;2023-11-19T11:27:38;11.43;;;7.93;;
10144;SDS011;5113;41.822;23.564;2023-11-19T11:31:08;30.77;;;13.33;;
10144;SDS011;5113;41.822;23.564;2023-11-19T11:34:33;13.00;;;8.47;;
10144;SDS011;5113;41.822;23.564;2023-11-19T11:37:55;23.40;;;11.83;;
10144;SDS011;5113;41.822;23.564;2023-11-19T11:41:17;15.80;;;8.00;;
10144;SDS011;5113;41.822;23.564;2023-11-19T11:44:39;14.57;;;10.30;;
10144;SDS011;5113;41.822;23.564;2023-11-19T11:48:09;9.50;;;7.87;;
10144;SDS011;5113;41.822;23.564;2023-11-19T11:51:18;14.33;;;6.50;;
10144;SDS011;5113;41.822;23.564;2023-11-19T11:55:03;12.40;;;7.10;;
10144;SDS011;5113;41.822;23.564;2023-11-19T11:58:12;16.37;;;10.17;;
10144;SDS011;5113;41.822;23.564;2023-11-19T12:01:19;11.53;;;7.37;;
10144;SDS011;5113;41.822;23.564;2023-11-19T12:04:25;7.43;;;4.77;;
10144;SDS011;5113;41.822;23.564;2023-11-19T12:07:32;13.03;;;7.23;;
10144;SDS011;5113;41.822;23.564;2023-11-19T12:10:45;9.23;;;5.30;;
10144;SDS011;5113;41.822;23.564;2023-11-19T12:13:53;16.17;;;6.80;;
10144;SDS011;5113;41.822;23.564;2023-11-19T12:17:10;13.50;;;8.77;;
10144;SDS011;5113;41.822;23.564;2023-11-19T12:20:55;9.37;;;6.10;;
10144;SDS011;5113;41.822;23.564;2023-11-19T12:24:02;21.97;;;11.63;;
10144;SDS011;5113;41.822;23.564;2023-11-19T12:27:14;11.63;;;8.40;;
10144;SDS011;5113;41.822;23.564;2023-11-19T12:30:21;7.87;;;6.03;;
10144;SDS011;5113;41.822;23.564;2023-11-19T12:33:30;15.17;;;8.73;;
10144;SDS011;5113;41.822;23.564;2023-11-19T12:36:38;8.37;;;5.80;;
10144;SDS011;5113;41.822;23.564;2023-11-19T12:39:48;9.07;;;6.80;;
10144;SDS011;5113;41.822;23.564;2023-11-19T12:42:57;5.60;;;5.10;;
10144;SDS011;5113;41.822;23.564;2023-11-19T12:46:11;8.73;;;5.67;;
10144;SDS011;5113;41.822;23.564;2023-11-19T12:49:24;7.73;;;5.63;;
10144;SDS011;5113;41.822;23.564;2023-11-19T12:52:31;11.60;;;6.87;;
10144;SDS011;5113;41.822;23.564;2023-11-19T12:55:37;8.33;;;4.87;;
10144;SDS011;5113;41.822;23.564;2023-11-19T12:58:45;12.27;;;6.90;;
10144;SDS011;5113;41.822;23.564;2023-11-19T13:01:55;16.33;;;6.00;;
10144;SDS011;5113;41.822;23.564;2023-11-19T13:08:27;14.50;;;7.83;;
10144;SDS011;5113;41.822;23.564;2023-11-19T13:11:34;34.50;;;10.30;;
10144;SDS011;5113;41.822;23.564;2023-11-19T13:14:43;43.27;;;13.90;;
10144;SDS011;5113;41.822;23.564;2023-11-19T13:17:51;27.57;;;11.40;;
10144;SDS011;5113;41.822;23.564;2023-11-19T13:20:58;20.13;;;9.20;;
10144;SDS011;5113;41.822;23.564;2023-11-19T13:24:05;12.10;;;7.47;;
10144;SDS011;5113;41.822;23.564;2023-11-19T13:27:13;5.73;;;4.23;;
10144;SDS011;5113;41.822;23.564;2023-11-19T13:30:21;13.23;;;10.30;;
10144;SDS011;5113;41.822;23.564;2023-11-19T13:33:32;11.67;;;10.47;;
10144;SDS011;5113;41.822;23.564;2023-11-19T13:36:39;14.13;;;7.30;;
10144;SDS011;5113;41.822;23.564;2023-11-19T13:39:45;19.83;;;9.67;;
10144;SDS011;5113;41.822;23.564;2023-11-19T13:42:54;23.60;;;11.17;;
10144;SDS011;5113;41.822;23.564;2023-11-19T13:46:02;13.57;;;9.37;;
10144;SDS011;5113;41.822;23.564;2023-11-19T13:49:09;45.10;;;23.73;;
10144;SDS011;5113;41.822;23.564;2023-11-19T13:52:16;102.27;;;57.37;;
10144;SDS011;5113;41.822;23.564;2023-11-19T13:55:22;53.03;;;29.40;;
10144;SDS011;5113;41.822;23.564;2023-11-19T13:58:29;54.17;;;26.47;;
10144;SDS011;5113;41.822;23.564;2023-11-19T14:01:37;29.57;;;14.63;;
10144;SDS011;5113;41.822;23.564;2023-11-19T14:04:44;31.43;;;15.57;;
10144;SDS011;5113;41.822;23.564;2023-11-19T14:07:50;20.67;;;11.23;;
10144;SDS011;5113;41.822;23.564;2023-11-19T14:10:58;12.93;;;8.50;;
10144;SDS011;5113;41.822;23.564;2023-11-19T14:14:04;10.83;;;7.20;;
10144;SDS011;5113;41.822;23.564;2023-11-19T14:17:12;10.90;;;8.70;;
10144;SDS011;5113;41.822;23.564;2023-11-19T14:20:20;24.80;;;15.93;;
10144;SDS011;5113;41.822;23.564;2023-11-19T14:23:27;15.77;;;9.40;;
10144;SDS011;5113;41.822;23.564;2023-11-19T14:26:33;69.40;;;36.87;;
10144;SDS011;5113;41.822;23.564;2023-11-19T14:29:40;37.10;;;19.97;;
10144;SDS011;5113;41.822;23.564;2023-11-19T14:32:48;42.77;;;24.70;;
10144;SDS011;5113;41.822;23.564;2023-11-19T14:35:55;16.67;;;11.63;;
10144;SDS011;5113;41.822;23.564;2023-11-19T14:39:01;19.43;;;13.53;;
10144;SDS011;5113;41.822;23.564;2023-11-19T14:42:09;12.27;;;9.07;;
10144;SDS011;5113;41.822;23.564;2023-11-19T14:45:16;15.40;;;9.20;;
10144;SDS011;5113;41.822;23.564;2023-11-19T14:48:23;14.47;;;9.07;;
10144;SDS011;5113;41.822;23.564;2023-11-19T14:51:30;38.93;;;23.33;;
10144;SDS011;5113;41.822;23.564;2023-11-19T14:54:37;36.77;;;22.80;;
10144;SDS011;5113;41.822;23.564;2023-11-19T14:57:44;16.43;;;10.60;;
10144;SDS011;5113;41.822;23.564;2023-11-19T15:01:05;9.30;;;7.50;;
10144;SDS011;5113;41.822;23.564;2023-11-19T15:04:14;11.17;;;9.17;;
10144;SDS011;5113;41.822;23.564;2023-11-19T15:07:21;7.40;;;5.50;;
10144;SDS011;5113;41.822;23.564;2023-11-19T15:10:27;7.03;;;5.50;;
10144;SDS011;5113;41.822;23.564;2023-11-19T15:13:34;4.73;;;4.10;;
10144;SDS011;5113;41.822;23.564;2023-11-19T15:16:42;4.90;;;4.40;;
10144;SDS011;5113;41.822;23.564;2023-11-19T15:19:50;4.17;;;3.77;;
10144;SDS011;5113;41.822;23.564;2023-11-19T15:22:57;5.63;;;4.13;;
10144;SDS011;5113;41.822;23.564;2023-11-19T15:26:05;32.63;;;14.20;;
10144;SDS011;5113;41.822;23.564;2023-11-19T15:29:15;6.47;;;5.13;;
10144;SDS011;5113;41.822;23.564;2023-11-19T15:32:21;9.03;;;6.83;;
10144;SDS011;5113;41.822;23.564;2023-11-19T15:35:30;48.53;;;24.13;;
10144;SDS011;5113;41.822;23.564;2023-11-19T15:38:36;23.13;;;10.87;;
10144;SDS011;5113;41.822;23.564;2023-11-19T15:41:46;14.43;;;9.13;;
10144;SDS011;5113;41.822;23.564;2023-11-19T15:44:52;10.30;;;9.37;;
10144;SDS011;5113;41.822;23.564;2023-11-19T15:47:59;16.60;;;8.53;;
10144;SDS011;5113;41.822;23.564;2023-11-19T15:51:07;13.57;;;7.93;;
10144;SDS011;5113;41.822;23.564;2023-11-19T15:54:14;10.83;;;7.00;;
10144;SDS011;5113;41.822;23.564;2023-11-19T15:57:20;25.43;;;12.63;;
10144;SDS011;5113;41.822;23.564;2023-11-19T16:00:27;19.30;;;11.20;;
10144;SDS011;5113;41.822;23.564;2023-11-19T16:03:34;21.77;;;13.53;;
10144;SDS011;5113;41.822;23.564;2023-11-19T16:06:45;134.50;;;71.80;;
10144;SDS011;5113;41.822;23.564;2023-11-19T16:09:51;38.17;;;18.80;;
10144;SDS011;5113;41.822;23.564;2023-11-19T16:12:58;122.83;;;56.07;;
10144;SDS011;5113;41.822;23.564;2023-11-19T16:16:05;16.97;;;9.10;;
10144;SDS011;5113;41.822;23.564;2023-11-19T16:19:15;48.03;;;21.47;;
10144;SDS011;5113;41.822;23.564;2023-11-19T16:22:23;63.37;;;25.13;;
10144;SDS011;5113;41.822;23.564;2023-11-19T16:25:30;50.37;;;22.93;;
10144;SDS011;5113;41.822;23.564;2023-11-19T16:28:37;39.50;;;19.63;;
10144;SDS011;5113;41.822;23.564;2023-11-19T16:31:44;29.57;;;15.93;;
10144;SDS011;5113;41.822;23.564;2023-11-19T16:34:51;47.70;;;21.83;;
10144;SDS011;5113;41.822;23.564;2023-11-19T16:37:58;49.47;;;27.73;;
10144;SDS011;5113;41.822;23.564;2023-11-19T16:41:06;76.80;;;37.97;;
10144;SDS011;5113;41.822;23.564;2023-11-19T16:44:13;63.07;;;33.17;;
10144;SDS011;5113;41.822;23.564;2023-11-19T16:47:19;81.70;;;40.47;;
10144;SDS011;5113;41.822;23.564;2023-11-19T16:50:27;42.20;;;23.50;;
10144;SDS011;5113;41.822;23.564;2023-11-19T16:53:35;42.53;;;22.87;;
10144;SDS011;5113;41.822;23.564;2023-11-19T16:56:42;33.87;;;17.97;;
10144;SDS011;5113;41.822;23.564;2023-11-19T16:59:48;58.03;;;29.77;;
10144;SDS011;5113;41.822;23.564;2023-11-19T17:03:00;46.17;;;26.13;;
10144;SDS011;5113;41.822;23.564;2023-11-19T17:09:33;68.73;;;33.60;;
10144;SDS011;5113;41.822;23.564;2023-11-19T17:12:40;35.83;;;21.43;;
10144;SDS011;5113;41.822;23.564;2023-11-19T17:15:46;19.67;;;11.03;;
10144;SDS011;5113;41.822;23.564;2023-11-19T17:18:53;42.13;;;23.13;;
10144;SDS011;5113;41.822;23.564;2023-11-19T17:22:00;22.57;;;16.13;;
10144;SDS011;5113;41.822;23.564;2023-11-19T17:25:09;13.00;;;9.33;;
10144;SDS011;5113;41.822;23.564;2023-11-19T17:28:16;14.57;;;9.23;;
10144;SDS011;5113;41.822;23.564;2023-11-19T17:31:22;11.57;;;6.80;;
10144;SDS011;5113;41.822;23.564;2023-11-19T17:34:29;20.40;;;12.43;;
10144;SDS011;5113;41.822;23.564;2023-11-19T17:37:35;27.57;;;15.43;;
10144;SDS011;5113;41.822;23.564;2023-11-19T17:40:43;33.00;;;17.43;;
10144;SDS011;5113;41.822;23.564;2023-11-19T17:43:52;27.00;;;15.30;;
10144;SDS011;5113;41.822;23.564;2023-11-19T17:46:59;23.87;;;14.70;;
10144;SDS011;5113;41.822;23.564;2023-11-19T17:50:06;25.77;;;13.50;;
10144;SDS011;5113;41.822;23.564;2023-11-19T17:53:16;23.57;;;12.30;;
10144;SDS011;5113;41.822;23.564;2023-11-19T17:56:25;31.43;;;17.27;;
10144;SDS011;5113;41.822;23.564;2023-11-19T17:59:32;66.40;;;33.50;;
10144;SDS011;5113;41.822;23.564;2023-11-19T18:02:39;90.43;;;36.47;;
10144;SDS011;5113;41.822;23.564;2023-11-19T18:05:49;107.03;;;43.50;;
10144;SDS011;5113;41.822;23.564;2023-11-19T18:08:56;120.57;;;43.60;;
10144;SDS011;5113;41.822;23.564;2023-11-19T18:12:04;116.87;;;43.20;;
10144;SDS011;5113;41.822;23.564;2023-11-19T18:15:20;85.33;;;33.63;;
10144;SDS011;5113;41.822;23.564;2023-11-19T18:18:27;40.20;;;20.03;;
10144;SDS011;5113;41.822;23.564;2023-11-19T18:21:34;52.67;;;26.57;;
10144;SDS011;5113;41.822;23.564;2023-11-19T18:24:40;72.63;;;30.67;;
10144;SDS011;5113;41.822;23.564;2023-11-19T18:27:48;57.37;;;22.37;;
10144;SDS011;5113;41.822;23.564;2023-11-19T18:30:55;27.33;;;14.93;;
10144;SDS011;5113;41.822;23.564;2023-11-19T18:34:03;29.07;;;18.23;;
10144;SDS011;5113;41.822;23.564;2023-11-19T18:37:09;16.50;;;9.70;;
10144;SDS011;5113;41.822;23.564;2023-11-19T18:40:17;19.80;;;10.73;;
10144;SDS011;5113;41.822;23.564;2023-11-19T18:43:27;18.27;;;10.63;;
10144;SDS011;5113;41.822;23.564;2023-11-19T18:46:34;16.80;;;10.30;;
10144;SDS011;5113;41.822;23.564;2023-11-19T18:49:41;23.70;;;12.13;;